AirNav   Bose ProFlight Series 2 Headset
 
 892 users online  

88FD Bethesda Memorial Hospital Heliport
Boynton Beach, Florida, USA

GOING TO BOYNTON BEACH?


FAA INFORMATION EFFECTIVE 30 JANUARY 2020

Location

FAA Identifier: 88FD
Lat/Long: 26-30-19.0400N 080-04-13.8000W
26-30.317333N 080-04.230000W
26.5052889,-80.0705000
(estimated)
Elevation: 55 ft. / 17 m (estimated)
Variation: 03W (1985)
Time zone: UTC -5 (UTC -4 during Daylight Saving Time)
Zip code: 33435

Heliport Operations

Heliport use: Private use, MEDICAL.
Control tower: no
ARTCC: MIAMI CENTER
FSS: MIAMI FLIGHT SERVICE STATION
Attendance: UNATNDD
Wind indicator: yes
Segmented circle: no
Lights: FOR PERIMETER LGTS CALL 561-737-7733.

Heliport Communications

WX AWOS-3PT at LNA (5 nm N): 119.925 (561-964-0308)
WX AWOS-3 at BCT (8 nm S): 121.125 (561-391-2696)
WX ASOS at PBI (11 nm N): 123.75 (561-683-2548)
WX ASOS at PMP (16 nm S): PHONE 954-783-3720
WX ASOS at FXE (19 nm S): PHONE 954-772-2537

Nearby radio navigation aids

VOR radial/distance  VOR name  Freq  Var
PBIr178/10.5PALM BEACH VORTAC115.7003W
FLLr017/26.4FORT LAUDERDALE VOR/DME114.4006W
PHKr117/37.2PAHOKEE VOR/DME115.4000E

 
NDB name  Hdg/Dist  Freq  Var  ID
UNITED155/28.140505WUTX ..- - -..-

Heliport Services

Runway Information

Helipad H1

Dimensions: 54 x 54 ft. / 16 x 16 m
Surface: concrete
ROOFTOP.
Runway edge lights: PERI
Latitude: 26-30.317333N
Longitude: 080-04.230000W
Elevation: 55.0 ft.
Traffic pattern: leftleft

Heliport Ownership and Management from official FAA records

Ownership: Privately-owned
Owner: BETHESDA MEDICAL HOSPITAL
2815 SOUTH SEACREST BLVD
BOYNTON BEACH, FL 33435
Phone 561-737-7733
Manager: BRUCE MANDIGO
2815 SOUTH SEACREST BLVD
BOYNTON BEACH, FL 33435
Phone 561-737-7733
ADDITIONAL CONTACT: ROGER KIRK RLKIRK@BHINC.ORG.

Additional Remarks

A52-H1 500 FT RADIO TWR AND FLOOD LIGHTS SW OF PAD.
FOR CD CTC PALM BEACH APCH AT 561-275-1430

Instrument Procedures

There are no published instrument procedures at 88FD.

Some nearby airports with instrument procedures:

KLNA - Palm Beach County Park Airport (5 nm N)
KBCT - Boca Raton Airport (8 nm S)
KPBI - Palm Beach International Airport (11 nm N)
KPMP - Pompano Beach Airpark (16 nm S)
KFXE - Fort Lauderdale Executive Airport (19 nm S)
 
Loc | Ops | Rwys | IFR | FBO | Links
Com | Nav | Svcs | Stats | Notes


 
Area around 88FD (Bethesda Memorial Hospital Heliport)
 
Road maps at: MapQuest Bing Google
 
Aerial photo
No photo
 
Sectional chart

 
Airport distance calculator
Flying to Bethesda Memorial Hospital Heliport? Find the distance to fly.

From to 88FD

Sunrise and sunset
Times for 16-Feb-2020
 Local
(UTC-5)
 Zulu
(UTC)
Morning civil twilight06:3311:33
Sunrise06:5611:56
Sunset18:1223:12
Evening civil twilight18:3623:36

Current date and time
Zulu (UTC)  17-Feb-2020 01:48:54
Local (UTC-5)  16-Feb-2020 20:48:54
 
METAR
KLNA 
5nm N 
170135Z AUTO 16003KT BKN050 25/21 A3008 RMK AO2 T02510211 PWINO PNO
KBCT 
7nm S 
170047Z 15004KT 10SM SCT048 24/21 A3006
KPBI 
11nm N 
170053Z 15006KT 10SM FEW015 BKN049 25/20 A3007 RMK AO2 SLP182 T02500200 $
KPMP 
16nm S 
170121Z 00000KT 10SM SCT023 BKN055 24/19 A3007 RMK AO2 T02440194 $
KFXE 
19nm S 
170053Z 15003KT 10SM SCT060 23/19 A3006 RMK AO2 SLP180 T02330194
TAF
KPBI 
11nm N 
162123Z 1621/1718 14011KT P6SM VCSH SCT025 BKN050 TEMPO 1621/1623 VRB15G25KT 2SM +RA BKN015 OVC030 FM170200 VRB05KT P6SM VCSH SCT030 BKN040 FM171600 14008KT P6SM SCT030
KFXE 
19nm S 
162123Z 1621/1718 13010KT P6SM FEW015 SCT025 BKN040 FM170200 VRB04KT P6SM VCSH SCT030 BKN040 FM171600 14008KT P6SM SCT025 BKN050
NOTAMs
Click for the latest NOTAMs
NOTAMs are issued by the DoD/FAA and will open in a separate window not controlled by AirNav.

 

 
 

Would you like to see your business listed on this page?

 If your business provides an interesting product or service to pilots, flight crews, aircraft, or users of the Bethesda Memorial Hospital Heliport, you should consider listing it here.  To start the listing process, click on the button below
 
Add a business
 

Other Pages about Bethesda Memorial Hospital Heliport

Update a link
 
Copyright © AirNav, LLC. All rights reserved. Privacy Policy  Contact